createdAt,value
2023-05-14T00:00:55.260Z,96099.50
2023-05-14T00:03:21.888Z,96102.88
2023-05-14T00:05:48.655Z,96096.97
2023-05-14T00:08:15.429Z,96094.13
2023-05-14T00:10:42.032Z,96087.16
2023-05-14T00:13:08.739Z,96082.06
2023-05-14T00:15:35.392Z,96083.19
2023-05-14T00:18:02.188Z,96078.28
2023-05-14T00:20:28.977Z,96071.59
2023-05-14T00:22:55.720Z,96068.03
2023-05-14T00:25:22.368Z,96070.72
2023-05-14T00:27:48.975Z,96061.97
2023-05-14T00:30:15.605Z,96061.75
2023-05-14T00:32:42.224Z,96061.84
2023-05-14T00:35:09.398Z,96062.59
2023-05-14T00:37:36.479Z,96067.97
2023-05-14T00:40:03.833Z,96064.53
2023-05-14T00:42:30.466Z,96056.69
2023-05-14T00:44:57.080Z,96056.81
2023-05-14T00:47:24.036Z,96058.41
2023-05-14T00:49:50.753Z,96059.13
2023-05-14T00:52:18.128Z,96059.94
2023-05-14T00:54:47.047Z,96061.97
2023-05-14T00:57:13.856Z,96061.34
2023-05-14T00:59:41.836Z,96054.47
2023-05-14T01:02:08.563Z,96051.75
2023-05-14T01:04:35.409Z,96050.44
2023-05-14T01:07:20.198Z,96040.72
2023-05-14T01:10:08.416Z,96046.53
2023-05-14T01:12:59.592Z,96036.13
2023-05-14T01:15:30.818Z,96037.09
2023-05-14T01:18:01.867Z,96038.13
2023-05-14T01:20:28.509Z,96044.34
2023-05-14T01:22:55.188Z,96046.91
2023-05-14T01:25:21.890Z,96044.84
2023-05-14T01:28:09.439Z,96046.72
2023-05-14T01:30:38.188Z,96036.91
2023-05-14T01:33:12.008Z,96041.13
2023-05-14T01:35:40.290Z,96039.81
2023-05-14T01:38:09.680Z,96040.50
2023-05-14T01:40:37.123Z,96038.66
2023-05-14T01:43:05.074Z,96039.91
2023-05-14T01:45:35.372Z,96045.72
2023-05-14T01:48:02.322Z,96037.66
2023-05-14T01:50:29.006Z,96033.88
2023-05-14T01:52:56.809Z,96040.81
2023-05-14T01:55:26.973Z,96037.59
2023-05-14T01:57:54.176Z,96040.56
2023-05-14T02:00:24.020Z,96033.66
2023-05-14T02:02:50.964Z,96032.94
2023-05-14T02:05:17.752Z,96031.56
2023-05-14T02:07:44.603Z,96026.88
2023-05-14T02:10:11.432Z,96026.94
2023-05-14T02:12:38.226Z,96021.78
2023-05-14T02:15:05.200Z,96017.06
2023-05-14T02:17:31.879Z,96033.81
2023-05-14T02:19:58.517Z,96024.09
2023-05-14T02:22:25.163Z,96022.25
2023-05-14T02:24:51.890Z,96027.53
2023-05-14T02:27:18.657Z,96032.25
2023-05-14T02:29:45.242Z,96024.16
2023-05-14T02:32:11.931Z,96023.13
2023-05-14T02:34:38.761Z,96012.25
2023-05-14T02:37:05.669Z,96015.00
2023-05-14T02:39:32.333Z,96002.28
2023-05-14T02:41:59.076Z,96006.50
2023-05-14T02:44:25.712Z,95997.78
2023-05-14T02:46:52.352Z,95997.72
2023-05-14T02:49:18.989Z,96000.00
2023-05-14T02:51:45.696Z,95988.44
2023-05-14T02:54:12.324Z,95996.47
2023-05-14T02:56:38.948Z,95989.34
2023-05-14T02:59:05.719Z,95992.53
2023-05-14T03:01:32.832Z,95989.19
2023-05-14T03:03:59.800Z,95988.31
2023-05-14T03:06:26.525Z,95991.16
2023-05-14T03:08:53.185Z,95982.59
2023-05-14T03:11:19.811Z,95987.56
2023-05-14T03:13:46.636Z,95993.16
2023-05-14T03:16:13.390Z,95989.91
2023-05-14T03:18:40.152Z,95988.28
2023-05-14T03:21:06.815Z,95983.81
2023-05-14T03:23:35.057Z,95991.13
2023-05-14T03:26:02.290Z,95988.28
2023-05-14T03:28:28.969Z,95983.41
2023-05-14T03:30:55.810Z,95976.91
2023-05-14T03:33:22.896Z,95988.94
2023-05-14T03:35:49.540Z,95990.59
2023-05-14T03:38:16.393Z,95975.03
2023-05-14T03:40:45.279Z,95981.44
2023-05-14T03:43:11.925Z,95980.81
2023-05-14T03:45:38.824Z,95992.88
2023-05-14T03:48:05.945Z,95988.28
2023-05-14T03:50:32.692Z,95984.19
2023-05-14T03:52:59.344Z,95984.94
2023-05-14T03:55:25.973Z,95995.97
2023-05-14T03:57:52.748Z,95990.97
2023-05-14T04:00:19.647Z,95993.50
2023-05-14T04:02:46.376Z,95991.25
2023-05-14T04:05:13.015Z,95992.66
2023-05-14T04:07:39.667Z,96009.09
2023-05-14T04:10:06.943Z,96000.88
2023-05-14T04:12:33.560Z,96004.25
2023-05-14T04:15:00.229Z,96009.03
2023-05-14T04:17:27.069Z,96011.91
2023-05-14T04:19:53.752Z,96003.19
2023-05-14T04:22:20.447Z,96013.31
2023-05-14T04:24:47.078Z,96007.94
2023-05-14T04:27:23.738Z,96005.66
2023-05-14T04:29:50.705Z,96005.50
2023-05-14T04:32:18.141Z,95985.81
2023-05-14T04:34:45.053Z,95978.16
2023-05-14T04:37:11.716Z,95978.25
2023-05-14T04:39:38.573Z,95970.63
2023-05-14T04:42:06.806Z,95970.00
2023-05-14T04:44:34.954Z,95975.56
2023-05-14T04:47:02.231Z,95976.03
2023-05-14T04:49:29.201Z,95976.66
2023-05-14T04:51:55.928Z,95974.13
2023-05-14T04:54:22.764Z,95979.03
2023-05-14T04:56:50.825Z,95981.88
2023-05-14T04:59:17.445Z,95977.63
2023-05-14T05:01:44.251Z,95980.50
2023-05-14T05:04:11.005Z,95990.16
2023-05-14T05:06:37.736Z,95990.06
2023-05-14T05:09:04.649Z,96002.34
2023-05-14T05:11:31.252Z,96003.72
2023-05-14T05:13:57.852Z,96005.91
2023-05-14T05:16:24.475Z,96004.66
2023-05-14T05:18:51.179Z,96000.34
2023-05-14T05:21:17.889Z,95991.63
2023-05-14T05:23:44.461Z,95993.81
2023-05-14T05:26:11.070Z,95998.25
2023-05-14T05:28:37.679Z,96008.91
2023-05-14T05:31:04.445Z,96002.19
2023-05-14T05:33:31.207Z,95990.06
2023-05-14T05:35:57.792Z,95995.88
2023-05-14T05:38:24.441Z,95997.72
2023-05-14T05:40:51.164Z,96000.41
2023-05-14T05:43:18.092Z,95989.03
2023-05-14T05:45:46.041Z,95983.94
2023-05-14T05:48:12.798Z,95982.41
2023-05-14T05:50:39.427Z,95984.47
2023-05-14T05:53:06.059Z,95989.69
2023-05-14T05:55:32.713Z,95985.56
2023-05-14T05:57:59.383Z,95983.69
2023-05-14T06:00:26.285Z,95986.22
2023-05-14T06:02:53.229Z,95984.00
2023-05-14T06:05:20.064Z,95981.78
2023-05-14T06:07:46.719Z,95981.00
2023-05-14T06:10:13.338Z,95988.75
2023-05-14T06:12:40.498Z,95992.41
2023-05-14T06:15:07.665Z,95988.63
2023-05-14T06:17:34.433Z,95983.34
2023-05-14T06:20:01.053Z,95985.75
2023-05-14T06:22:27.695Z,95991.91
2023-05-14T06:24:54.312Z,95985.28
2023-05-14T06:27:21.005Z,95984.03
2023-05-14T06:29:47.597Z,95985.78
2023-05-14T06:32:15.747Z,95992.97
2023-05-14T06:34:42.923Z,95990.69
2023-05-14T06:37:10.552Z,95983.88
2023-05-14T06:39:37.949Z,95971.72
2023-05-14T06:42:05.136Z,95982.66
2023-05-14T06:44:31.989Z,95974.38
2023-05-14T06:46:58.618Z,95974.22
2023-05-14T06:49:25.305Z,95978.44
2023-05-14T06:51:52.365Z,95979.22
2023-05-14T06:54:20.517Z,95987.31
2023-05-14T06:56:47.256Z,95987.41
2023-05-14T06:59:13.934Z,95985.25
2023-05-14T07:01:41.052Z,95975.28
2023-05-14T07:04:07.970Z,95975.91
2023-05-14T07:06:34.876Z,95980.38
2023-05-14T07:09:01.996Z,95978.13
2023-05-14T07:11:28.761Z,95976.59
2023-05-14T07:13:55.593Z,95975.72
2023-05-14T07:16:22.342Z,95962.13
2023-05-14T07:18:49.000Z,95958.22
2023-05-14T07:21:15.733Z,95956.38
2023-05-14T07:23:42.371Z,95951.34
2023-05-14T07:26:09.063Z,95961.28
2023-05-14T07:28:35.845Z,95959.25
2023-05-14T07:31:05.050Z,95955.38
2023-05-14T07:33:31.825Z,95950.81
2023-05-14T07:35:58.626Z,95953.06
2023-05-14T07:38:25.392Z,95951.97
2023-05-14T07:40:52.017Z,95954.16
2023-05-14T07:43:18.660Z,95948.25
2023-05-14T07:45:45.641Z,95946.34
2023-05-14T07:48:12.376Z,95947.25
2023-05-14T07:50:40.490Z,95948.53
2023-05-14T07:53:07.087Z,95950.16
2023-05-14T07:55:33.760Z,95943.03
2023-05-14T07:58:01.240Z,95946.84
2023-05-14T08:00:27.976Z,95935.66
2023-05-14T08:02:55.759Z,95940.41
2023-05-14T08:05:22.656Z,95930.75
2023-05-14T08:07:49.351Z,95943.75
2023-05-14T08:10:15.961Z,95939.00
2023-05-14T08:12:42.903Z,95943.09
2023-05-14T08:15:09.974Z,95935.94
2023-05-14T08:17:36.666Z,95941.66
2023-05-14T08:20:03.573Z,95934.19
2023-05-14T08:22:30.162Z,95931.06
2023-05-14T08:24:56.817Z,95930.25
2023-05-14T08:27:23.419Z,95925.63
2023-05-14T08:29:50.087Z,95932.31
2023-05-14T08:32:23.478Z,95930.13
2023-05-14T08:34:51.861Z,95931.06
2023-05-14T08:37:18.696Z,95923.09
2023-05-14T08:39:45.396Z,95919.50
2023-05-14T08:42:13.788Z,95911.72
2023-05-14T08:44:50.142Z,95906.13
2023-05-14T08:47:20.886Z,95905.38
2023-05-14T08:49:52.584Z,95909.16
2023-05-14T08:52:22.394Z,95915.94
2023-05-14T08:54:51.152Z,95904.72
2023-05-14T08:57:20.245Z,95913.59
2023-05-14T08:59:47.363Z,95909.31
2023-05-14T09:02:17.415Z,95918.78
2023-05-14T09:04:44.939Z,95921.63
2023-05-14T09:07:12.006Z,95913.44
2023-05-14T09:09:38.826Z,95908.03
2023-05-14T09:12:06.411Z,95908.22
2023-05-14T09:14:33.496Z,95905.66
2023-05-14T09:17:00.178Z,95909.31
2023-05-14T09:19:27.076Z,95908.47
2023-05-14T09:21:58.294Z,95915.41
2023-05-14T09:24:29.086Z,95917.28
2023-05-14T09:26:59.022Z,95910.44
2023-05-14T09:29:26.583Z,95911.03
2023-05-14T09:31:54.457Z,95908.06
2023-05-14T09:34:25.333Z,95891.34
2023-05-14T09:37:03.117Z,95889.97
2023-05-14T09:39:30.725Z,95881.28
2023-05-14T09:41:57.844Z,95884.44
2023-05-14T09:44:25.665Z,95889.38
2023-05-14T09:46:53.467Z,95893.16
2023-05-14T09:49:20.952Z,95890.63
2023-05-14T09:51:49.604Z,95876.34
2023-05-14T09:54:16.877Z,95879.59
2023-05-14T09:56:44.678Z,95867.06
2023-05-14T09:59:11.496Z,95865.00
2023-05-14T10:01:38.689Z,95865.97
2023-05-14T10:04:08.033Z,95864.91
2023-05-14T10:06:38.190Z,95875.03
2023-05-14T10:09:09.971Z,95872.59
2023-05-14T10:11:38.656Z,95879.84
2023-05-14T10:14:09.353Z,95871.94
2023-05-14T10:16:40.701Z,95871.44
2023-05-14T10:19:12.036Z,95873.69
2023-05-14T10:21:41.334Z,95881.72
2023-05-14T10:24:09.468Z,95873.47
2023-05-14T10:26:39.338Z,95871.47
2023-05-14T10:29:08.368Z,95855.38
2023-05-14T10:31:53.752Z,95859.06
2023-05-14T10:34:38.273Z,95852.81
2023-05-14T10:37:08.009Z,95857.38
2023-05-14T10:39:41.515Z,95855.38
2023-05-14T10:42:17.065Z,95857.72
2023-05-14T10:45:02.856Z,95850.91
2023-05-14T10:47:29.890Z,95856.25
2023-05-14T10:49:59.445Z,95847.00
2023-05-14T10:52:26.743Z,95846.38
2023-05-14T10:54:55.969Z,95843.91
2023-05-14T10:57:24.656Z,95829.94
2023-05-14T10:59:56.790Z,95833.78
2023-05-14T11:02:35.800Z,95824.72
2023-05-14T11:05:15.836Z,95820.47
2023-05-14T11:07:45.257Z,95815.25
2023-05-14T11:10:16.988Z,95820.66
2023-05-14T11:12:46.126Z,95818.66
2023-05-14T11:15:16.473Z,95820.34
2023-05-14T11:17:44.876Z,95814.13
2023-05-14T11:20:12.170Z,95809.16
2023-05-14T11:22:40.105Z,95807.69
2023-05-14T11:25:07.802Z,95801.94
2023-05-14T11:27:36.831Z,95810.31
2023-05-14T11:30:04.096Z,95800.47
2023-05-14T11:32:34.121Z,95795.16
2023-05-14T11:35:00.875Z,95796.19
2023-05-14T11:37:27.481Z,95794.94
2023-05-14T11:39:55.972Z,95794.25
2023-05-14T11:42:23.735Z,95796.31
2023-05-14T11:44:52.046Z,95795.25
2023-05-14T11:47:20.562Z,95793.66
2023-05-14T11:49:48.617Z,95796.72
2023-05-14T11:52:16.417Z,95786.09
2023-05-14T11:54:44.419Z,95793.66
2023-05-14T11:57:13.278Z,95790.38
2023-05-14T11:59:40.322Z,95799.13
2023-05-14T12:02:18.799Z,95787.13
2023-05-14T12:04:50.722Z,95791.09
2023-05-14T12:07:17.477Z,95784.19
2023-05-14T12:09:49.416Z,95787.31
2023-05-14T12:12:21.925Z,95785.44
2023-05-14T12:14:49.633Z,95784.28
2023-05-14T12:17:18.820Z,95786.22
2023-05-14T12:19:47.561Z,95775.84
2023-05-14T12:22:17.561Z,95783.25
2023-05-14T12:24:52.509Z,95784.56
2023-05-14T12:27:22.487Z,95786.81
2023-05-14T12:29:49.221Z,95780.47
2023-05-14T12:32:15.916Z,95775.88
2023-05-14T12:34:42.794Z,95776.91
2023-05-14T12:37:09.447Z,95768.34
2023-05-14T12:39:36.222Z,95772.09
2023-05-14T12:42:02.882Z,95775.72
2023-05-14T12:44:29.582Z,95780.00
2023-05-14T12:46:56.385Z,95782.31
2023-05-14T12:49:23.116Z,95775.28
2023-05-14T12:51:52.609Z,95775.47
2023-05-14T12:54:23.445Z,95772.75
2023-05-14T12:56:50.460Z,95783.13
2023-05-14T12:59:17.125Z,95777.91
2023-05-14T13:01:43.759Z,95776.22
2023-05-14T13:04:13.900Z,95774.44
2023-05-14T13:06:40.962Z,95762.16
2023-05-14T13:09:08.812Z,95777.28
2023-05-14T13:11:35.848Z,95771.38
2023-05-14T13:14:03.161Z,95767.16
2023-05-14T13:16:30.314Z,95772.41
2023-05-14T13:18:57.112Z,95770.66
2023-05-14T13:21:23.868Z,95773.19
2023-05-14T13:23:50.748Z,95771.19
2023-05-14T13:26:17.474Z,95772.22
2023-05-14T13:28:44.696Z,95762.72
2023-05-14T13:31:13.164Z,95767.78
2023-05-14T13:33:44.653Z,95754.78
2023-05-14T13:36:13.592Z,95760.50
2023-05-14T13:38:40.603Z,95754.47
2023-05-14T13:41:07.289Z,95754.47
2023-05-14T13:43:35.353Z,95746.91
2023-05-14T13:46:03.281Z,95753.25
2023-05-14T13:48:31.114Z,95756.22
2023-05-14T13:50:57.959Z,95753.09
2023-05-14T13:53:25.438Z,95756.47
2023-05-14T13:55:58.595Z,95758.03
2023-05-14T13:58:25.717Z,95755.34
2023-05-14T14:00:52.843Z,95754.09
2023-05-14T14:03:19.884Z,95752.19
2023-05-14T14:05:46.560Z,95749.50
2023-05-14T14:10:48.595Z,95755.88
2023-05-14T14:13:15.371Z,95758.75
2023-05-14T14:15:42.714Z,95763.31
2023-05-14T14:18:09.357Z,95752.41
2023-05-14T14:20:36.339Z,95753.31
2023-05-14T14:23:02.992Z,95750.81
2023-05-14T14:25:29.607Z,95756.66
2023-05-14T14:27:56.380Z,95747.78
2023-05-14T14:30:22.972Z,95742.53
2023-05-14T14:32:50.021Z,95739.66
2023-05-14T14:35:18.174Z,95739.03
2023-05-14T14:37:49.083Z,95737.66
2023-05-14T14:40:16.711Z,95743.50
2023-05-14T14:42:44.070Z,95738.91
2023-05-14T14:45:11.655Z,95737.19
2023-05-14T14:47:38.517Z,95733.22
2023-05-14T14:50:06.255Z,95724.50
2023-05-14T14:52:33.121Z,95734.81
2023-05-14T14:54:59.720Z,95722.13
2023-05-14T14:57:26.900Z,95729.75
2023-05-14T14:59:53.590Z,95717.06
2023-05-14T15:02:20.358Z,95718.03
2023-05-14T15:04:47.002Z,95718.81
2023-05-14T15:07:15.951Z,95717.69
2023-05-14T15:09:42.692Z,95716.59
2023-05-14T15:12:10.877Z,95712.16
2023-05-14T15:14:37.554Z,95717.06
2023-05-14T15:17:04.499Z,95715.16
2023-05-14T15:19:32.362Z,95717.56
2023-05-14T15:21:59.134Z,95715.47
2023-05-14T15:24:26.278Z,95716.44
2023-05-14T15:26:53.780Z,95717.38
2023-05-14T15:29:20.569Z,95717.41
2023-05-14T15:31:47.449Z,95716.13
2023-05-14T15:34:14.199Z,95717.56
2023-05-14T15:36:40.971Z,95709.13
2023-05-14T15:39:10.314Z,95710.56
2023-05-14T15:41:38.056Z,95702.34
2023-05-14T15:44:04.961Z,95705.69
2023-05-14T15:46:32.279Z,95715.81
2023-05-14T15:48:58.917Z,95706.31
2023-05-14T15:51:25.593Z,95713.59
2023-05-14T15:53:54.216Z,95705.97
2023-05-14T15:56:23.226Z,95698.38
2023-05-14T15:58:49.985Z,95700.44
2023-05-14T16:01:17.019Z,95702.66
2023-05-14T16:03:43.846Z,95700.75
2023-05-14T16:06:11.599Z,95692.19
2023-05-14T16:08:38.647Z,95699.91
2023-05-14T16:11:06.405Z,95693.16
2023-05-14T16:13:33.810Z,95687.59
2023-05-14T16:16:01.294Z,95691.09
2023-05-14T16:18:28.055Z,95697.75
2023-05-14T16:20:54.745Z,95686.66
2023-05-14T16:23:21.633Z,95692.19
2023-05-14T16:25:48.409Z,95696.78
2023-05-14T16:28:15.212Z,95690.09
2023-05-14T16:30:41.861Z,95686.97
2023-05-14T16:33:08.503Z,95683.78
2023-05-14T16:35:35.209Z,95677.47
2023-05-14T16:38:01.828Z,95681.28
2023-05-14T16:40:28.496Z,95678.06
2023-05-14T16:42:55.109Z,95686.03
2023-05-14T16:45:21.953Z,95682.09
2023-05-14T16:47:48.812Z,95683.97
2023-05-14T16:50:15.502Z,95677.63
2023-05-14T16:52:42.313Z,95671.47
2023-05-14T16:55:09.421Z,95676.19
2023-05-14T16:57:36.084Z,95682.22
2023-05-14T17:00:06.199Z,95678.09
2023-05-14T17:02:33.677Z,95673.03
2023-05-14T17:05:00.575Z,95668.91
2023-05-14T17:07:27.414Z,95669.09
2023-05-14T17:09:54.104Z,95670.81
2023-05-14T17:12:20.789Z,95668.44
2023-05-14T17:14:47.432Z,95664.94
2023-05-14T17:17:14.054Z,95665.91
2023-05-14T17:19:41.038Z,95661.31
2023-05-14T17:22:07.645Z,95653.88
2023-05-14T17:24:35.557Z,95650.25
2023-05-14T17:27:02.216Z,95655.94
2023-05-14T17:29:28.822Z,95654.19
2023-05-14T17:31:55.671Z,95649.91
2023-05-14T17:34:22.335Z,95661.63
2023-05-14T17:36:49.004Z,95655.16
2023-05-14T17:39:16.056Z,95650.09
2023-05-14T17:41:42.794Z,95650.25
2023-05-14T17:44:11.320Z,95645.00
2023-05-14T17:46:39.447Z,95646.56
2023-05-14T17:49:06.143Z,95641.03
2023-05-14T17:51:32.859Z,95639.13
2023-05-14T17:53:59.695Z,95635.97
2023-05-14T17:56:26.278Z,95643.88
2023-05-14T17:58:52.900Z,95640.88
2023-05-14T18:01:19.574Z,95647.88
2023-05-14T18:03:46.222Z,95640.13
2023-05-14T18:06:13.033Z,95637.88
2023-05-14T18:08:39.627Z,95644.50
2023-05-14T18:11:06.342Z,95643.09
2023-05-14T18:13:33.012Z,95635.53
2023-05-14T18:16:00.775Z,95636.94
2023-05-14T18:18:27.612Z,95635.03
2023-05-14T18:20:54.280Z,95634.56
2023-05-14T18:23:20.971Z,95636.97
2023-05-14T18:25:48.270Z,95642.47
2023-05-14T18:28:15.637Z,95630.59
2023-05-14T18:30:43.566Z,95636.00
2023-05-14T18:33:10.520Z,95644.22
2023-05-14T18:35:37.366Z,95634.88
2023-05-14T18:38:04.143Z,95638.84
2023-05-14T18:40:30.788Z,95638.34
2023-05-14T18:42:58.123Z,95638.66
2023-05-14T18:45:25.072Z,95640.88
2023-05-14T18:47:52.129Z,95640.41
2023-05-14T18:50:19.034Z,95638.50
2023-05-14T18:52:45.636Z,95637.53
2023-05-14T18:55:12.300Z,95643.88
2023-05-14T18:57:39.034Z,95645.94
2023-05-14T19:00:06.504Z,95649.59
2023-05-14T19:02:33.211Z,95645.31
2023-05-14T19:04:59.888Z,95652.47
2023-05-14T19:07:27.754Z,95642.97
2023-05-14T19:09:54.396Z,95647.41
2023-05-14T19:12:21.053Z,95649.94
2023-05-14T19:14:47.651Z,95650.88
2023-05-14T19:17:14.433Z,95653.56
2023-05-14T19:19:41.121Z,95642.34
2023-05-14T19:22:07.885Z,95648.03
2023-05-14T19:24:34.584Z,95652.00
2023-05-14T19:27:01.229Z,95649.28
2023-05-14T19:29:27.852Z,95643.28
2023-05-14T19:31:54.487Z,95650.41
2023-05-14T19:34:21.586Z,95650.69
2023-05-14T19:36:48.245Z,95646.88
2023-05-14T19:39:14.836Z,95648.47
2023-05-14T19:41:41.681Z,95643.97
2023-05-14T19:44:08.308Z,95637.25
2023-05-14T19:46:35.060Z,95647.00
2023-05-14T19:49:01.687Z,95652.00
2023-05-14T19:51:28.330Z,95644.09
2023-05-14T19:53:54.980Z,95642.38
2023-05-14T19:56:23.160Z,95648.53
2023-05-14T19:58:51.102Z,95639.38
2023-05-14T20:01:17.847Z,95639.94
2023-05-14T20:03:44.550Z,95639.75
2023-05-14T20:06:11.406Z,95635.13
2023-05-14T20:08:38.056Z,95639.28
2023-05-14T20:11:04.783Z,95640.13
2023-05-14T20:13:36.505Z,95639.44
2023-05-14T20:16:03.269Z,95630.75
2023-05-14T20:18:30.029Z,95633.59
2023-05-14T20:20:56.768Z,95630.34
2023-05-14T20:23:23.373Z,95629.53
2023-05-14T20:25:51.344Z,95630.19
2023-05-14T20:28:18.037Z,95626.50
2023-05-14T20:30:44.699Z,95626.44
2023-05-14T20:33:12.969Z,95622.13
2023-05-14T20:35:41.622Z,95617.66
2023-05-14T20:38:08.236Z,95611.94
2023-05-14T20:40:34.877Z,95618.59
2023-05-14T20:43:01.926Z,95620.53
2023-05-14T20:45:28.521Z,95620.25
2023-05-14T20:47:55.266Z,95607.91
2023-05-14T20:50:22.717Z,95607.34
2023-05-14T20:52:49.346Z,95607.81
2023-05-14T20:55:16.079Z,95611.19
2023-05-14T20:57:43.594Z,95603.88
2023-05-14T21:00:11.113Z,95598.88
2023-05-14T21:02:37.991Z,95599.91
2023-05-14T21:05:05.146Z,95602.28
2023-05-14T21:07:31.820Z,95600.81
2023-05-14T21:09:58.688Z,95590.97
2023-05-14T21:12:25.328Z,95587.81
2023-05-14T21:14:51.930Z,95594.13
2023-05-14T21:17:18.568Z,95584.00
2023-05-14T21:19:45.204Z,95594.63
2023-05-14T21:22:12.799Z,95600.00
2023-05-14T21:24:39.413Z,95589.66
2023-05-14T21:27:06.184Z,95591.25
2023-05-14T21:29:32.776Z,95585.22
2023-05-14T21:31:59.451Z,95585.53
2023-05-14T21:34:26.156Z,95585.59
2023-05-14T21:36:53.040Z,95586.97
2023-05-14T21:39:20.037Z,95586.84
2023-05-14T21:41:46.660Z,95580.00
2023-05-14T21:44:13.271Z,95581.72
2023-05-14T21:46:39.999Z,95579.00
2023-05-14T21:49:07.092Z,95586.97
2023-05-14T21:51:33.763Z,95580.59
2023-05-14T21:54:00.452Z,95583.34
2023-05-14T21:56:27.386Z,95575.72
2023-05-14T21:58:56.105Z,95582.44
2023-05-14T22:01:23.178Z,95576.66
2023-05-14T22:03:50.028Z,95579.81
2023-05-14T22:06:16.787Z,95580.47
2023-05-14T22:08:43.492Z,95574.28
2023-05-14T22:11:10.115Z,95570.16
2023-05-14T22:13:40.891Z,95572.19
2023-05-14T22:16:13.734Z,95562.25
2023-05-14T22:18:40.741Z,95565.38
2023-05-14T22:21:07.427Z,95563.00
2023-05-14T22:23:34.268Z,95562.06
2023-05-14T22:26:01.012Z,95562.06
2023-05-14T22:28:27.649Z,95569.69
2023-05-14T22:30:54.441Z,95569.19
2023-05-14T22:33:21.145Z,95568.22
2023-05-14T22:35:47.787Z,95570.28
2023-05-14T22:38:14.409Z,95560.94
2023-05-14T22:40:41.025Z,95563.22
2023-05-14T22:43:07.676Z,95564.66
2023-05-14T22:45:34.317Z,95561.03
2023-05-14T22:48:00.938Z,95561.09
2023-05-14T22:50:27.600Z,95552.69
2023-05-14T22:52:54.204Z,95553.88
2023-05-14T22:55:21.222Z,95554.00
2023-05-14T22:57:47.986Z,95550.19
2023-05-14T23:00:15.349Z,95545.59
2023-05-14T23:02:42.119Z,95550.97
2023-05-14T23:05:09.322Z,95554.16
2023-05-14T23:07:36.040Z,95539.41
2023-05-14T23:10:02.764Z,95543.88
2023-05-14T23:12:29.449Z,95540.84
2023-05-14T23:14:56.117Z,95541.81
2023-05-14T23:17:22.851Z,95544.13
2023-05-14T23:19:49.714Z,95541.09
2023-05-14T23:22:16.457Z,95537.41
2023-05-14T23:24:43.159Z,95537.16
2023-05-14T23:27:11.421Z,95540.41
2023-05-14T23:29:38.525Z,95540.03
2023-05-14T23:32:05.585Z,95540.13
2023-05-14T23:34:33.113Z,95533.75
2023-05-14T23:36:59.850Z,95532.03
2023-05-14T23:39:26.585Z,95533.63
2023-05-14T23:41:53.193Z,95525.97
2023-05-14T23:44:19.845Z,95523.75
2023-05-14T23:46:46.584Z,95530.25
2023-05-14T23:49:13.220Z,95525.31
2023-05-14T23:51:39.812Z,95530.19
2023-05-14T23:54:06.465Z,95521.91
2023-05-14T23:56:33.701Z,95521.31
2023-05-14T23:59:00.458Z,95518.75
